Terminal Aerodrome Forecast
Issued by NWS

Home | Current Version | Previous Version | Graphics & Text | Print | Product List | Glossary On
Versions: 1 2 3 4 5 6 7 8 9 10 11 12 13 14 15 16 17 18 19 20 21 22 23 24 25 26 27 28
000
FTUS43 KLOT 192106 AAA
TAFGYY
TAF AMD
KGYY 192106Z 1921/2018 04007KT P6SM FEW025 SCT040 SCT100
     FM200200 11004KT P6SM FEW030 SCT200
     FM200500 VRB03KT 3SM BR FEW009 FEW250
      TEMPO 2009/2013 1/2SM FG VV005
     FM201500 15007KT 6SM BR FEW015 SCT040=

USA.gov is the U.S. government's official web portal to all federal, state and local government web resources and services.